Time;durP1;ratioP1;P1;durP2;ratioP2;P2;SDS_P1;SDS_P2;PMS_P1;PMS_P2;Temp;Humidity;BMP_temperature;BMP_pressure;BME280_temperature;BME280_humidity;BME280_pressure;Samples;Min_cycle;Max_cycle;Signal;HPM_P1;HPM_P2
2023/04/03 00:00:34;;;;;;;6.00;4.20;;;;;;;-128.00;-1.00;-1.00;103349;1257;1002666;-79
2023/04/03 00:03:15;;;;;;;7.80;4.00;;;;;;;-128.00;-1.00;-1.00;103105;1260;1011586;-79
2023/04/03 00:05:41;;;;;;;8.60;4.90;;;;;;;-128.00;-1.00;-1.00;103299;1258;1004558;-80
2023/04/03 00:08:09;;;;;;;7.00;5.00;;;;;;;-128.00;-1.00;-1.00;103364;1262;1003117;-79
2023/04/03 00:10:36;;;;;;;5.20;4.20;;;;;;;-128.00;-1.00;-1.00;105419;1258;1002645;-79
2023/04/03 00:13:03;;;;;;;6.50;5.20;;;;;;;-128.00;-1.00;-1.00;103330;1257;1002362;-80
2023/04/03 00:15:30;;;;;;;5.80;4.60;;;;;;;-128.00;-1.00;-1.00;104770;1259;1002384;-81
2023/04/03 00:17:56;;;;;;;8.40;4.80;;;;;;;-128.00;-1.00;-1.00;103359;1262;1003201;-81
2023/04/03 00:20:23;;;;;;;6.70;4.60;;;;;;;-128.00;-1.00;-1.00;103117;1263;1004229;-80
2023/04/03 00:22:50;;;;;;;6.80;4.60;;;;;;;-128.00;-1.00;-1.00;103372;1262;1002677;-80
2023/04/03 00:25:16;;;;;;;7.30;5.40;;;;;;;-128.00;-1.00;-1.00;103372;1257;1003031;-79
2023/04/03 00:27:43;;;;;;;6.30;4.20;;;;;;;-128.00;-1.00;-1.00;103415;1257;1002357;-81
2023/04/03 00:30:11;;;;;;;7.40;6.10;;;;;;;-128.00;-1.00;-1.00;103366;1258;1002704;-80
2023/04/03 00:32:37;;;;;;;7.40;4.80;;;;;;;-128.00;-1.00;-1.00;103517;1264;1004114;-79
2023/04/03 00:35:05;;;;;;;7.20;4.60;;;;;;;-128.00;-1.00;-1.00;103936;1258;1002799;-80
2023/04/03 00:37:31;;;;;;;7.40;5.40;;;;;;;-128.00;-1.00;-1.00;103786;1258;1003770;-81
2023/04/03 00:39:58;;;;;;;6.70;4.70;;;;;;;-128.00;-1.00;-1.00;103774;1257;1002487;-79
2023/04/03 00:42:24;;;;;;;7.80;4.80;;;;;;;-128.00;-1.00;-1.00;103798;1258;1002970;-79
2023/04/03 00:44:56;;;;;;;7.70;4.80;;;;;;;-128.00;-1.00;-1.00;103746;1262;1003271;-80
2023/04/03 00:47:23;;;;;;;7.70;5.40;;;;;;;-128.00;-1.00;-1.00;103892;1257;1013652;-79
2023/04/03 00:49:50;;;;;;;7.00;5.00;;;;;;;-128.00;-1.00;-1.00;103889;1257;1002527;-80
2023/04/03 00:52:17;;;;;;;7.90;5.20;;;;;;;-128.00;-1.00;-1.00;103757;1262;1002601;-81
2023/04/03 00:54:44;;;;;;;8.10;5.80;;;;;;;-128.00;-1.00;-1.00;103694;1263;1002367;-80
2023/04/03 00:57:10;;;;;;;7.60;6.00;;;;;;;-128.00;-1.00;-1.00;103549;1257;1002794;-79
2023/04/03 00:59:40;;;;;;;6.40;5.10;;;;;;;-128.00;-1.00;-1.00;103663;1257;1002702;-80
2023/04/03 01:02:07;;;;;;;5.40;4.10;;;;;;;-128.00;-1.00;-1.00;103768;1257;1009801;-80
2023/04/03 01:04:38;;;;;;;6.80;4.60;;;;;;;-128.00;-1.00;-1.00;103830;1258;1002965;-80
2023/04/03 01:07:07;;;;;;;6.80;5.80;;;;;;;-128.00;-1.00;-1.00;103806;1258;1013132;-79
2023/04/03 01:09:33;;;;;;;;;;;;;;;-128.00;-1.00;-1.00;103723;1264;1013296;-80
2023/04/03 01:12:20;;;;;;;5.00;4.20;;;;;;;-128.00;-1.00;-1.00;103698;1258;1004968;-79
2023/04/03 01:14:52;;;;;;;8.70;4.20;;;;;;;-128.00;-1.00;-1.00;104178;1258;1009727;-80
2023/04/03 01:17:37;;;;;;;7.10;4.50;;;;;;;-128.00;-1.00;-1.00;103084;1258;1013828;-79
2023/04/03 01:20:31;;;;;;;6.80;4.60;;;;;;;-128.00;-1.00;-1.00;103330;1257;1013969;-80
2023/04/03 01:23:13;;;;;;;7.80;4.80;;;;;;;-128.00;-1.00;-1.00;103331;1262;1015929;-79
2023/04/03 01:25:53;;;;;;;6.90;4.90;;;;;;;-128.00;-1.00;-1.00;103290;1264;1013273;-78
2023/04/03 01:28:25;;;;;;;8.60;5.10;;;;;;;-128.00;-1.00;-1.00;106174;1257;1010460;-79
2023/04/03 01:31:26;;;;;;;7.20;5.00;;;;;;;-128.00;-1.00;-1.00;104264;1258;1012040;-79
2023/04/03 01:33:52;;;;;;;7.50;5.20;;;;;;;-128.00;-1.00;-1.00;103057;1257;1014260;-80
2023/04/03 01:36:24;;;;;;;6.30;4.80;;;;;;;-128.00;-1.00;-1.00;103319;1262;1002779;-80
2023/04/03 01:38:52;;;;;;;6.70;4.90;;;;;;;-128.00;-1.00;-1.00;103376;1257;1015267;-80
2023/04/03 01:41:18;;;;;;;8.20;5.00;;;;;;;-128.00;-1.00;-1.00;103339;1257;1002529;-80
2023/04/03 01:43:44;;;;;;;9.10;5.70;;;;;;;-128.00;-1.00;-1.00;103358;1262;1002400;-79
2023/04/03 01:46:11;;;;;;;6.50;4.70;;;;;;;-128.00;-1.00;-1.00;103372;1257;1002630;-82
2023/04/03 01:48:37;;;;;;;8.50;5.10;;;;;;;-128.00;-1.00;-1.00;103277;1257;1004893;-79
2023/04/03 01:51:04;;;;;;;7.20;4.60;;;;;;;-128.00;-1.00;-1.00;103418;1257;1003036;-78
2023/04/03 01:53:30;;;;;;;7.60;4.50;;;;;;;-128.00;-1.00;-1.00;103404;1258;1002551;-80
2023/04/03 01:55:56;;;;;;;6.50;4.50;;;;;;;-128.00;-1.00;-1.00;103361;1258;1004964;-79
2023/04/03 01:58:23;;;;;;;7.40;4.60;;;;;;;-128.00;-1.00;-1.00;103392;1257;1003780;-79
2023/04/03 02:00:49;;;;;;;5.30;4.00;;;;;;;-128.00;-1.00;-1.00;103359;1261;1002783;-79
2023/04/03 02:03:16;;;;;;;5.70;4.30;;;;;;;-128.00;-1.00;-1.00;103101;1257;1002845;-80
2023/04/03 02:05:42;;;;;;;7.00;4.60;;;;;;;-128.00;-1.00;-1.00;103335;1263;1002463;-79
2023/04/03 02:08:08;;;;;;;8.90;4.70;;;;;;;-128.00;-1.00;-1.00;103381;1262;1002959;-79
2023/04/03 02:10:35;;;;;;;5.20;3.30;;;;;;;-128.00;-1.00;-1.00;103379;1262;1002644;-80
2023/04/03 02:13:01;;;;;;;4.90;3.40;;;;;;;-128.00;-1.00;-1.00;103342;1262;1002438;-80
2023/04/03 02:15:28;;;;;;;4.30;3.00;;;;;;;-128.00;-1.00;-1.00;103337;1257;1002847;-79
2023/04/03 02:17:54;;;;;;;8.50;5.00;;;;;;;-128.00;-1.00;-1.00;103075;1257;1002632;-81
2023/04/03 02:20:20;;;;;;;4.00;3.00;;;;;;;-128.00;-1.00;-1.00;103325;1257;1002506;-79
2023/04/03 02:22:47;;;;;;;5.80;3.90;;;;;;;-128.00;-1.00;-1.00;103353;1257;1003050;-79
2023/04/03 02:25:14;;;;;;;5.40;3.70;;;;;;;-128.00;-1.00;-1.00;103338;1262;1002680;-79
2023/04/03 02:27:40;;;;;;;7.00;4.50;;;;;;;-128.00;-1.00;-1.00;103384;1257;1004650;-79
2023/04/03 02:30:09;;;;;;;5.60;3.90;;;;;;;-128.00;-1.00;-1.00;103374;1257;1004720;-78
2023/04/03 02:32:35;;;;;;;5.30;4.10;;;;;;;-128.00;-1.00;-1.00;103121;1257;1012022;-80
2023/04/03 02:35:02;;;;;;;5.70;3.70;;;;;;;-128.00;-1.00;-1.00;103362;1262;1002839;-79
2023/04/03 02:37:28;;;;;;;5.60;2.90;;;;;;;-128.00;-1.00;-1.00;103076;1264;1002995;-80
2023/04/03 02:39:55;;;;;;;3.60;2.90;;;;;;;-128.00;-1.00;-1.00;103371;1258;1003193;-81
2023/04/03 02:42:21;;;;;;;5.10;3.30;;;;;;;-128.00;-1.00;-1.00;103295;1257;1002469;-80
2023/04/03 02:44:48;;;;;;;4.70;3.40;;;;;;;-128.00;-1.00;-1.00;103362;1257;1002633;-79
2023/04/03 02:47:14;;;;;;;4.50;3.30;;;;;;;-128.00;-1.00;-1.00;103398;1256;1003019;-80
2023/04/03 02:49:44;;;;;;;5.70;3.80;;;;;;;-128.00;-1.00;-1.00;103406;1260;1002254;-78
2023/04/03 02:52:12;;;;;;;4.50;3.50;;;;;;;-128.00;-1.00;-1.00;103379;1257;1013635;-79
2023/04/03 02:54:39;;;;;;;6.70;4.20;;;;;;;-128.00;-1.00;-1.00;103409;1257;1002888;-79
2023/04/03 02:57:07;;;;;;;4.40;3.60;;;;;;;-128.00;-1.00;-1.00;103116;1262;1002532;-80
2023/04/03 02:59:35;;;;;;;4.90;3.10;;;;;;;-128.00;-1.00;-1.00;103824;1262;1012930;-79
2023/04/03 03:02:02;;;;;;;5.80;4.20;;;;;;;-128.00;-1.00;-1.00;103786;1257;1002663;-80
2023/04/03 03:04:29;;;;;;;4.90;3.90;;;;;;;-128.00;-1.00;-1.00;103362;1257;1002153;-81
2023/04/03 03:06:56;;;;;;;8.40;3.90;;;;;;;-128.00;-1.00;-1.00;103073;1257;1002924;-79
2023/04/03 03:09:22;;;;;;;5.30;3.50;;;;;;;-128.00;-1.00;-1.00;103093;1257;1002643;-80
2023/04/03 03:11:49;;;;;;;6.90;4.30;;;;;;;-128.00;-1.00;-1.00;104014;1262;1002965;-79
2023/04/03 03:14:15;;;;;;;6.70;4.30;;;;;;;-128.00;-1.00;-1.00;103347;1257;1003320;-79
2023/04/03 03:16:42;;;;;;;5.90;4.30;;;;;;;-128.00;-1.00;-1.00;103368;1262;1003318;-79
2023/04/03 03:19:08;;;;;;;6.60;4.70;;;;;;;-128.00;-1.00;-1.00;103340;1257;1002422;-80
2023/04/03 03:21:34;;;;;;;5.30;3.90;;;;;;;-128.00;-1.00;-1.00;103364;1259;1004926;-80
2023/04/03 03:24:01;;;;;;;5.20;3.70;;;;;;;-128.00;-1.00;-1.00;103364;1262;1002576;-80
2023/04/03 03:26:27;;;;;;;5.80;3.30;;;;;;;-128.00;-1.00;-1.00;103327;1258;1002975;-78
2023/04/03 03:28:54;;;;;;;5.50;3.30;;;;;;;-128.00;-1.00;-1.00;103372;1257;1002733;-79
2023/04/03 03:31:21;;;;;;;7.10;4.10;;;;;;;-128.00;-1.00;-1.00;103359;1257;1004131;-80
2023/04/03 03:33:47;;;;;;;6.90;4.40;;;;;;;-128.00;-1.00;-1.00;103326;1258;1002776;-80
2023/04/03 03:36:14;;;;;;;6.70;4.50;;;;;;;-128.00;-1.00;-1.00;103358;1257;1002801;-80
2023/04/03 03:38:40;;;;;;;6.40;4.80;;;;;;;-128.00;-1.00;-1.00;105504;1257;1002624;-79
2023/04/03 03:41:07;;;;;;;6.70;5.20;;;;;;;-128.00;-1.00;-1.00;103531;1258;1003352;-80
2023/04/03 03:43:33;;;;;;;6.10;4.10;;;;;;;-128.00;-1.00;-1.00;103358;1257;1002928;-80
2023/04/03 03:45:59;;;;;;;5.70;4.00;;;;;;;-128.00;-1.00;-1.00;103395;1262;1003449;-80
2023/04/03 03:48:26;;;;;;;7.60;4.80;;;;;;;-128.00;-1.00;-1.00;103413;1257;1003306;-79
2023/04/03 03:50:52;;;;;;;4.10;3.60;;;;;;;-128.00;-1.00;-1.00;103278;1263;1002822;-80
2023/04/03 03:53:19;;;;;;;6.60;3.70;;;;;;;-128.00;-1.00;-1.00;103346;1257;1002299;-80
2023/04/03 03:55:45;;;;;;;5.50;4.10;;;;;;;-128.00;-1.00;-1.00;103422;1257;1002808;-78
2023/04/03 03:58:12;;;;;;;4.40;3.30;;;;;;;-128.00;-1.00;-1.00;103350;1257;1004171;-78
2023/04/03 04:00:38;;;;;;;6.20;3.60;;;;;;;-128.00;-1.00;-1.00;103370;1257;1002879;-80
2023/04/03 04:03:05;;;;;;;3.70;3.20;;;;;;;-128.00;-1.00;-1.00;103347;1257;1004949;-79
2023/04/03 04:05:31;;;;;;;4.70;3.10;;;;;;;-128.00;-1.00;-1.00;103361;1257;1002933;-80
2023/04/03 04:07:57;;;;;;;3.90;2.50;;;;;;;-128.00;-1.00;-1.00;103390;1257;1002441;-78
2023/04/03 04:10:24;;;;;;;4.80;3.20;;;;;;;-128.00;-1.00;-1.00;103306;1257;1002435;-80
2023/04/03 04:12:51;;;;;;;5.50;3.40;;;;;;;-128.00;-1.00;-1.00;103334;1262;1003260;-79
2023/04/03 04:15:18;;;;;;;4.70;3.20;;;;;;;-128.00;-1.00;-1.00;103337;1262;1002605;-79
2023/04/03 04:17:45;;;;;;;6.50;3.70;;;;;;;-128.00;-1.00;-1.00;103281;1258;1004841;-80
2023/04/03 04:20:11;;;;;;;5.90;3.60;;;;;;;-128.00;-1.00;-1.00;103285;1257;1002979;-79
2023/04/03 04:22:38;;;;;;;5.00;3.80;;;;;;;-128.00;-1.00;-1.00;103337;1257;1003108;-80
2023/04/03 04:25:05;;;;;;;5.60;3.50;;;;;;;-128.00;-1.00;-1.00;103342;1262;1002268;-80
2023/04/03 04:27:31;;;;;;;5.70;4.00;;;;;;;-128.00;-1.00;-1.00;103357;1262;1002938;-79
2023/04/03 04:29:58;;;;;;;11.40;5.80;;;;;;;-128.00;-1.00;-1.00;103355;1257;1003051;-78
2023/04/03 04:32:24;;;;;;;6.80;4.90;;;;;;;-128.00;-1.00;-1.00;103377;1257;1002263;-80
2023/04/03 04:34:51;;;;;;;5.40;3.90;;;;;;;-128.00;-1.00;-1.00;103381;1257;1002522;-80
2023/04/03 04:37:17;;;;;;;5.20;3.60;;;;;;;-128.00;-1.00;-1.00;103429;1257;1002698;-78
2023/04/03 04:39:43;;;;;;;5.10;4.10;;;;;;;-128.00;-1.00;-1.00;103583;1257;1002636;-80
2023/04/03 04:42:12;;;;;;;8.40;4.80;;;;;;;-128.00;-1.00;-1.00;103671;1257;1002437;-80
2023/04/03 04:44:39;;;;;;;6.10;4.00;;;;;;;-128.00;-1.00;-1.00;103939;1257;1010323;-79
2023/04/03 04:47:06;;;;;;;5.10;4.20;;;;;;;-128.00;-1.00;-1.00;103661;1256;1002826;-79
2023/04/03 04:49:32;;;;;;;12.30;5.70;;;;;;;-128.00;-1.00;-1.00;103768;1257;1002477;-80
2023/04/03 04:51:59;;;;;;;7.60;4.40;;;;;;;-128.00;-1.00;-1.00;103795;1260;1003141;-80
2023/04/03 04:54:26;;;;;;;6.50;4.20;;;;;;;-128.00;-1.00;-1.00;104379;1257;1003368;-79
2023/04/03 04:56:52;;;;;;;7.20;4.80;;;;;;;-128.00;-1.00;-1.00;104047;1257;1004119;-81
2023/04/03 04:59:19;;;;;;;6.50;3.80;;;;;;;-128.00;-1.00;-1.00;103359;1257;1003295;-78
2023/04/03 05:01:45;;;;;;;7.70;3.90;;;;;;;-128.00;-1.00;-1.00;103412;1257;1003941;-80
2023/04/03 05:04:15;;;;;;;4.70;3.30;;;;;;;-128.00;-1.00;-1.00;103287;1257;1002421;-79
2023/04/03 05:06:41;;;;;;;7.10;4.00;;;;;;;-128.00;-1.00;-1.00;103351;1262;1012947;-80
2023/04/03 05:09:09;;;;;;;4.50;3.10;;;;;;;-128.00;-1.00;-1.00;103332;1257;1002742;-80
2023/04/03 05:11:36;;;;;;;7.20;3.70;;;;;;;-128.00;-1.00;-1.00;103244;1257;1010787;-82
2023/04/03 05:14:05;;;;;;;4.80;3.80;;;;;;;-128.00;-1.00;-1.00;103068;1263;1002481;-79
2023/04/03 05:16:32;;;;;;;5.80;4.20;;;;;;;-128.00;-1.00;-1.00;103360;1257;1013105;-79
2023/04/03 05:18:58;;;;;;;5.10;3.10;;;;;;;-128.00;-1.00;-1.00;103365;1257;1003123;-79
2023/04/03 05:21:26;;;;;;;5.60;3.50;;;;;;;-128.00;-1.00;-1.00;103894;1258;1002374;-79
2023/04/03 05:23:52;;;;;;;5.80;3.80;;;;;;;-128.00;-1.00;-1.00;103341;1257;1003767;-79
2023/04/03 05:26:18;;;;;;;4.90;4.00;;;;;;;-128.00;-1.00;-1.00;103380;1258;1002959;-78
2023/04/03 05:28:45;;;;;;;5.40;3.90;;;;;;;-128.00;-1.00;-1.00;103411;1259;1002990;-79
2023/04/03 05:31:12;;;;;;;4.70;3.20;;;;;;;-128.00;-1.00;-1.00;103359;1257;1003260;-80
2023/04/03 05:33:38;;;;;;;4.30;2.80;;;;;;;-128.00;-1.00;-1.00;103275;1259;1002389;-81
2023/04/03 05:36:05;;;;;;;7.20;3.90;;;;;;;-128.00;-1.00;-1.00;103300;1257;1004778;-79
2023/04/03 05:38:32;;;;;;;7.70;4.20;;;;;;;-128.00;-1.00;-1.00;103362;1260;1002453;-79
2023/04/03 05:40:58;;;;;;;3.80;2.90;;;;;;;-128.00;-1.00;-1.00;103399;1258;1002387;-80
2023/04/03 05:43:25;;;;;;;5.20;3.60;;;;;;;-128.00;-1.00;-1.00;103362;1257;1002569;-79
2023/04/03 05:45:52;;;;;;;5.50;4.30;;;;;;;-128.00;-1.00;-1.00;103160;1259;1004046;-79
2023/04/03 05:48:18;;;;;;;5.30;3.40;;;;;;;-128.00;-1.00;-1.00;103183;1259;1002919;-80
2023/04/03 05:50:45;;;;;;;4.60;3.50;;;;;;;-128.00;-1.00;-1.00;103107;1263;1002849;-80
2023/04/03 05:53:19;;;;;;;7.10;4.00;;;;;;;-128.00;-1.00;-1.00;103417;1260;1002967;-78
2023/04/03 05:55:45;;;;;;;5.40;4.00;;;;;;;-128.00;-1.00;-1.00;103407;1256;1013231;-80
2023/04/03 05:58:12;;;;;;;6.40;3.80;;;;;;;-128.00;-1.00;-1.00;103383;1260;1003259;-78
2023/04/03 06:00:38;;;;;;;5.70;4.00;;;;;;;-128.00;-1.00;-1.00;103418;1256;1003172;-79
2023/04/03 06:03:06;;;;;;;6.70;4.60;;;;;;;-128.00;-1.00;-1.00;103427;1256;1002859;-79
2023/04/03 06:05:32;;;;;;;6.20;4.30;;;;;;;-128.00;-1.00;-1.00;104365;1260;1002332;-78
2023/04/03 06:07:59;;;;;;;6.70;3.70;;;;;;;-128.00;-1.00;-1.00;104700;1257;1002192;-80
2023/04/03 06:10:25;;;;;;;6.20;4.40;;;;;;;-128.00;-1.00;-1.00;103627;1256;1002588;-78
2023/04/03 06:12:51;;;;;;;5.60;4.10;;;;;;;-128.00;-1.00;-1.00;103633;1257;1002496;-80
2023/04/03 06:15:18;;;;;;;16.10;9.50;;;;;;;-128.00;-1.00;-1.00;103594;1257;1003340;-80
2023/04/03 06:17:44;;;;;;;15.90;9.80;;;;;;;-128.00;-1.00;-1.00;103913;1260;1003125;-80
2023/04/03 06:20:12;;;;;;;7.00;5.40;;;;;;;-128.00;-1.00;-1.00;103901;1257;1003688;-79
2023/04/03 06:22:38;;;;;;;5.40;3.70;;;;;;;-128.00;-1.00;-1.00;103719;1260;1003115;-78
2023/04/03 06:25:06;;;;;;;5.10;3.70;;;;;;;-128.00;-1.00;-1.00;104520;1257;1004362;-79
2023/04/03 06:27:32;;;;;;;8.20;5.20;;;;;;;-128.00;-1.00;-1.00;104346;1258;1002426;-81
2023/04/03 06:29:58;;;;;;;14.20;8.50;;;;;;;-128.00;-1.00;-1.00;103909;1256;1002891;-81
2023/04/03 06:32:26;;;;;;;7.30;5.30;;;;;;;-128.00;-1.00;-1.00;103459;1256;1003898;-80
2023/04/03 06:34:53;;;;;;;6.20;4.90;;;;;;;-128.00;-1.00;-1.00;103451;1256;1002429;-78
2023/04/03 06:37:21;;;;;;;7.10;4.20;;;;;;;-128.00;-1.00;-1.00;103578;1260;1002597;-81
2023/04/03 06:39:48;;;;;;;7.70;5.10;;;;;;;-128.00;-1.00;-1.00;103495;1256;1002926;-80
2023/04/03 06:42:15;;;;;;;9.40;5.70;;;;;;;-128.00;-1.00;-1.00;103747;1259;1002682;-80
2023/04/03 06:44:41;;;;;;;5.50;3.70;;;;;;;-128.00;-1.00;-1.00;103797;1256;1002544;-81
2023/04/03 06:47:11;;;;;;;8.70;6.60;;;;;;;-128.00;-1.00;-1.00;103624;1257;1003156;-82
2023/04/03 06:49:37;;;;;;;14.10;7.70;;;;;;;-128.00;-1.00;-1.00;103491;1256;1011642;-81
2023/04/03 06:52:05;;;;;;;22.10;12.80;;;;;;;-128.00;-1.00;-1.00;103747;1257;1002840;-81
2023/04/03 06:54:31;;;;;;;15.60;8.80;;;;;;;-128.00;-1.00;-1.00;103637;1260;1002815;-80
2023/04/03 06:56:58;;;;;;;37.60;21.70;;;;;;;-128.00;-1.00;-1.00;103387;1257;1003164;-78
2023/04/03 06:59:25;;;;;;;20.30;14.80;;;;;;;-128.00;-1.00;-1.00;103368;1257;1004689;-81
2023/04/03 07:01:51;;;;;;;12.40;7.80;;;;;;;-128.00;-1.00;-1.00;103469;1257;1002942;-79
2023/04/03 07:04:20;;;;;;;57.70;38.60;;;;;;;-128.00;-1.00;-1.00;103555;1260;1002775;-80
2023/04/03 07:06:46;;;;;;;49.50;23.00;;;;;;;-128.00;-1.00;-1.00;103845;1257;1013797;-79
2023/04/03 07:09:14;;;;;;;19.40;14.00;;;;;;;-128.00;-1.00;-1.00;104552;1257;1002650;-80
2023/04/03 07:11:40;;;;;;;27.70;16.90;;;;;;;-128.00;-1.00;-1.00;104531;1257;1003073;-80
2023/04/03 07:14:07;;;;;;;13.50;8.10;;;;;;;-128.00;-1.00;-1.00;104626;1256;1003057;-81
2023/04/03 07:16:35;;;;;;;20.30;14.60;;;;;;;-128.00;-1.00;-1.00;104321;1257;1002470;-81
2023/04/03 07:19:02;;;;;;;18.20;13.70;;;;;;;-128.00;-1.00;-1.00;104334;1256;1003641;-80
2023/04/03 07:21:29;;;;;;;22.30;13.10;;;;;;;-128.00;-1.00;-1.00;103545;1256;1003346;-80
2023/04/03 07:23:55;;;;;;;22.10;15.10;;;;;;;-128.00;-1.00;-1.00;104483;1257;1003091;-81
2023/04/03 07:26:23;;;;;;;18.10;9.30;;;;;;;-128.00;-1.00;-1.00;104861;1257;1002441;-79
2023/04/03 07:28:49;;;;;;;15.30;11.20;;;;;;;-128.00;-1.00;-1.00;104696;1256;1003260;-79
2023/04/03 07:31:16;;;;;;;9.60;8.20;;;;;;;-128.00;-1.00;-1.00;104483;1257;1003006;-81
2023/04/03 07:33:43;;;;;;;9.90;6.40;;;;;;;-128.00;-1.00;-1.00;103627;1256;1002436;-81
2023/04/03 07:36:10;;;;;;;26.30;19.00;;;;;;;-128.00;-1.00;-1.00;103740;1257;1002850;-80
2023/04/03 07:38:36;;;;;;;12.40;10.50;;;;;;;-128.00;-1.00;-1.00;103654;1258;1002251;-79
2023/04/03 07:41:03;;;;;;;13.50;9.50;;;;;;;-128.00;-1.00;-1.00;103821;1260;1003090;-79
2023/04/03 07:43:30;;;;;;;10.90;7.60;;;;;;;-128.00;-1.00;-1.00;103321;1256;1002941;-79
2023/04/03 07:45:56;;;;;;;14.50;4.80;;;;;;;-128.00;-1.00;-1.00;103917;1260;1002625;-80
2023/04/03 07:48:24;;;;;;;37.80;18.90;;;;;;;-128.00;-1.00;-1.00;103611;1257;1002999;-79
2023/04/03 07:50:50;;;;;;;15.10;7.60;;;;;;;-128.00;-1.00;-1.00;103834;1258;1002673;-80
2023/04/03 07:53:16;;;;;;;9.20;5.80;;;;;;;-128.00;-1.00;-1.00;104492;1257;1002668;-78
2023/04/03 07:55:45;;;;;;;7.30;4.70;;;;;;;-128.00;-1.00;-1.00;103465;1260;1004991;-80
2023/04/03 07:58:14;;;;;;;22.20;11.60;;;;;;;-128.00;-1.00;-1.00;103225;1256;1013208;-80
2023/04/03 08:00:41;;;;;;;52.00;21.50;;;;;;;-128.00;-1.00;-1.00;103604;1256;1010187;-80
2023/04/03 08:03:07;;;;;;;28.10;14.70;;;;;;;-128.00;-1.00;-1.00;103823;1256;1002729;-80
2023/04/03 08:05:37;;;;;;;10.90;7.80;;;;;;;-128.00;-1.00;-1.00;103650;1256;1002438;-80
2023/04/03 08:08:05;;;;;;;11.00;6.60;;;;;;;-128.00;-1.00;-1.00;103578;1256;1014336;-81
2023/04/03 08:10:31;;;;;;;8.20;4.50;;;;;;;-128.00;-1.00;-1.00;103500;1256;1002575;-80
2023/04/03 08:12:58;;;;;;;8.40;4.50;;;;;;;-128.00;-1.00;-1.00;103495;1257;1002345;-80
2023/04/03 08:15:25;;;;;;;10.40;7.90;;;;;;;-128.00;-1.00;-1.00;103567;1256;1002374;-78
2023/04/03 08:17:51;;;;;;;7.50;5.90;;;;;;;-128.00;-1.00;-1.00;103552;1257;1002427;-81
2023/04/03 08:20:18;;;;;;;7.80;6.30;;;;;;;-128.00;-1.00;-1.00;103477;1260;1003315;-81
2023/04/03 08:22:44;;;;;;;6.10;3.50;;;;;;;-128.00;-1.00;-1.00;103651;1256;1004627;-79
2023/04/03 08:25:11;;;;;;;5.10;2.70;;;;;;;-128.00;-1.00;-1.00;103907;1260;1002993;-78
2023/04/03 08:27:37;;;;;;;9.80;3.70;;;;;;;-128.00;-1.00;-1.00;103872;1257;1002510;-81
2023/04/03 08:30:04;;;;;;;7.50;3.50;;;;;;;-128.00;-1.00;-1.00;103877;1257;1002470;-79
2023/04/03 08:32:31;;;;;;;8.80;4.70;;;;;;;-128.00;-1.00;-1.00;103876;1257;1002997;-80
2023/04/03 08:34:58;;;;;;;7.10;4.30;;;;;;;-128.00;-1.00;-1.00;103756;1257;1002309;-81
2023/04/03 08:37:24;;;;;;;8.80;4.20;;;;;;;-128.00;-1.00;-1.00;103673;1256;1002533;-78
2023/04/03 08:39:51;;;;;;;8.00;5.90;;;;;;;-128.00;-1.00;-1.00;103550;1256;1003532;-78
2023/04/03 08:42:39;;;;;;;5.30;3.80;;;;;;;-128.00;-1.00;-1.00;104316;1256;1002663;-78
2023/04/03 08:45:10;;;;;;;6.50;4.00;;;;;;;-128.00;-1.00;-1.00;104091;1256;1013419;-81
2023/04/03 08:47:46;;;;;;;6.30;3.40;;;;;;;-128.00;-1.00;-1.00;103752;1257;1013670;-79
2023/04/03 08:50:30;;;;;;;5.90;3.30;;;;;;;-128.00;-1.00;-1.00;103650;1256;1010440;-78
2023/04/03 08:52:57;;;;;;;5.50;3.80;;;;;;;-128.00;-1.00;-1.00;103409;1256;1010979;-79
2023/04/03 08:55:37;;;;;;;12.10;8.40;;;;;;;-128.00;-1.00;-1.00;103734;1257;1004594;-81
2023/04/03 08:58:05;;;;;;;36.10;20.60;;;;;;;-128.00;-1.00;-1.00;104114;1256;1012702;-79
2023/04/03 09:00:41;;;;;;;6.20;4.00;;;;;;;-128.00;-1.00;-1.00;103698;1256;1002414;-79
2023/04/03 09:03:14;;;;;;;7.30;2.90;;;;;;;-128.00;-1.00;-1.00;105898;1256;1009227;-80
2023/04/03 09:05:57;;;;;;;4.50;3.00;;;;;;;-128.00;-1.00;-1.00;103372;1256;1014588;-80
2023/04/03 09:08:36;;;;;;;15.10;6.80;;;;;;;-128.00;-1.00;-1.00;104550;1257;1013188;-81
2023/04/03 09:11:48;;;;;;;7.50;5.40;;;;;;;-128.00;-1.00;-1.00;104357;1256;1012999;-77
2023/04/03 09:14:26;;;;;;;12.70;7.90;;;;;;;-128.00;-1.00;-1.00;103749;1256;1012979;-78
2023/04/03 09:16:56;;;;;;;18.60;16.60;;;;;;;-128.00;-1.00;-1.00;103766;1257;1013112;-80
2023/04/03 09:19:28;;;;;;;14.70;9.00;;;;;;;-128.00;-1.00;-1.00;103566;1260;1011011;-78
2023/04/03 09:22:16;;;;;;;7.00;4.00;;;;;;;-128.00;-1.00;-1.00;103496;1256;1014000;-80
2023/04/03 09:24:48;;;;;;;4.60;3.40;;;;;;;-128.00;-1.00;-1.00;103842;1256;1014455;-79
2023/04/03 09:27:15;;;;;;;5.20;3.40;;;;;;;-128.00;-1.00;-1.00;105840;1257;1012766;-78
2023/04/03 09:29:45;;;;;;;8.90;5.00;;;;;;;-128.00;-1.00;-1.00;106230;1257;1002430;-77
2023/04/03 09:32:19;;;;;;;6.40;2.80;;;;;;;-128.00;-1.00;-1.00;106153;1257;1011242;-79
2023/04/03 09:34:46;;;;;;;6.40;3.40;;;;;;;-128.00;-1.00;-1.00;104540;1255;1012574;-79
2023/04/03 09:37:12;;;;;;;6.00;3.50;;;;;;;-128.00;-1.00;-1.00;103540;1259;1002651;-78
2023/04/03 09:39:49;;;;;;;5.00;2.80;;;;;;;-128.00;-1.00;-1.00;103481;1263;1002811;-79
2023/04/03 09:42:20;;;;;;;7.90;2.70;;;;;;;-128.00;-1.00;-1.00;103843;1259;1010030;-78
2023/04/03 09:45:04;;;;;;;5.60;2.80;;;;;;;-128.00;-1.00;-1.00;103496;1261;1010395;-78
2023/04/03 09:47:34;;;;;;;5.60;2.90;;;;;;;-128.00;-1.00;-1.00;103728;1260;1013611;-79
2023/04/03 09:50:19;;;;;;;6.20;3.40;;;;;;;-128.00;-1.00;-1.00;103364;1257;1013755;-79
2023/04/03 09:52:48;;;;;;;6.40;2.50;;;;;;;-128.00;-1.00;-1.00;103376;1259;1012930;-80
2023/04/03 09:55:27;;;;;;;7.40;2.90;;;;;;;-128.00;-1.00;-1.00;103140;1258;1002495;-78
2023/04/03 09:58:04;;;;;;;6.20;3.30;;;;;;;-128.00;-1.00;-1.00;103692;1256;1012467;-80
2023/04/03 10:00:38;;;;;;;5.10;2.90;;;;;;;-128.00;-1.00;-1.00;103510;1257;1013513;-81
2023/04/03 10:03:05;;;;;;;7.60;3.60;;;;;;;-128.00;-1.00;-1.00;103593;1260;1013738;-79
2023/04/03 10:05:36;;;;;;;5.10;2.90;;;;;;;-128.00;-1.00;-1.00;104326;1256;1003135;-81
2023/04/03 10:08:15;;;;;;;5.40;2.70;;;;;;;-128.00;-1.00;-1.00;104707;1256;1010023;-81
2023/04/03 10:10:43;;;;;;;6.40;2.90;;;;;;;-128.00;-1.00;-1.00;104320;1257;1011309;-79
2023/04/03 10:13:20;;;;;;;5.20;2.60;;;;;;;-128.00;-1.00;-1.00;104194;1256;1003276;-79
2023/04/03 10:15:55;;;;;;;4.00;2.50;;;;;;;-128.00;-1.00;-1.00;104003;1256;1013862;-81
2023/04/03 10:18:42;;;;;;;5.10;2.60;;;;;;;-128.00;-1.00;-1.00;104262;1257;1013098;-79
2023/04/03 10:21:17;;;;;;;5.70;2.90;;;;;;;-128.00;-1.00;-1.00;103858;1256;1009678;-81
2023/04/03 10:24:08;;;;;;;8.40;4.00;;;;;;;-128.00;-1.00;-1.00;104346;1262;1011128;-79
2023/04/03 10:26:47;;;;;;;4.40;2.80;;;;;;;-128.00;-1.00;-1.00;103660;1258;1013075;-79
2023/04/03 10:29:41;;;;;;;10.20;3.10;;;;;;;-128.00;-1.00;-1.00;103782;1260;1013389;-78
2023/04/03 10:32:48;;;;;;;7.60;3.70;;;;;;;-128.00;-1.00;-1.00;103809;1261;1013944;-80
2023/04/03 10:35:25;;;;;;;8.60;4.00;;;;;;;-128.00;-1.00;-1.00;104393;1257;1009188;-80
2023/04/03 10:38:11;;;;;;;8.00;3.60;;;;;;;-128.00;-1.00;-1.00;104080;1256;1011082;-80
2023/04/03 10:40:50;;;;;;;11.20;5.40;;;;;;;-128.00;-1.00;-1.00;103765;1257;1012708;-80
2023/04/03 10:43:46;;;;;;;11.60;5.40;;;;;;;-128.00;-1.00;-1.00;103972;1259;1016518;-80
2023/04/03 10:46:17;;;;;;;23.00;13.20;;;;;;;-128.00;-1.00;-1.00;104118;1256;1015993;-79
2023/04/03 10:49:05;;;;;;;49.90;28.20;;;;;;;-128.00;-1.00;-1.00;103973;1258;1010582;-79
2023/04/03 10:51:41;;;;;;;31.20;15.30;;;;;;;-128.00;-1.00;-1.00;103996;1256;1011053;-81
2023/04/03 10:54:24;;;;;;;39.60;17.50;;;;;;;-128.00;-1.00;-1.00;103864;1256;1013093;-81
2023/04/03 10:56:51;;;;;;;19.30;10.70;;;;;;;-128.00;-1.00;-1.00;104385;1256;1013306;-79
2023/04/03 10:59:22;;;;;;;15.10;9.40;;;;;;;-128.00;-1.00;-1.00;104245;1259;1003030;-80
2023/04/03 11:01:52;;;;;;;9.30;6.10;;;;;;;-128.00;-1.00;-1.00;103514;1264;1009992;-79
2023/04/03 11:04:19;;;;;;;8.40;4.40;;;;;;;-128.00;-1.00;-1.00;104462;1257;1013636;-80
2023/04/03 11:06:47;;;;;;;9.10;4.30;;;;;;;-128.00;-1.00;-1.00;104547;1256;1003081;-79
2023/04/03 11:09:26;;;;;;;9.30;3.50;;;;;;;-128.00;-1.00;-1.00;104501;1256;1003022;-81
2023/04/03 11:12:00;;;;;;;9.40;4.70;;;;;;;-128.00;-1.00;-1.00;104198;1257;1013066;-79
2023/04/03 11:14:29;;;;;;;6.80;3.60;;;;;;;-128.00;-1.00;-1.00;104588;1256;1010243;-81
2023/04/03 11:17:18;;;;;;;8.90;4.30;;;;;;;-128.00;-1.00;-1.00;104603;1256;1011803;-79
2023/04/03 11:19:46;;;;;;;;;;;;;;;-128.00;-1.00;-1.00;104589;1261;1013740;-79
2023/04/03 11:22:24;;;;;;;4.30;3.40;;;;;;;-128.00;-1.00;-1.00;104305;1262;1003032;-81
2023/04/03 11:24:56;;;;;;;9.90;3.70;;;;;;;-128.00;-1.00;-1.00;103836;1257;1013135;-79